Time;durP1;ratioP1;P1;durP2;ratioP2;P2;SDS_P1;SDS_P2;PMS_P1;PMS_P2;Temp;Humidity;BMP_temperature;BMP_pressure;BME280_temperature;BME280_humidity;BME280_pressure;Samples;Min_cycle;Max_cycle;Signal;HPM_P1;HPM_P2
2023/12/14 00:00:01;;;;;;;;;;;;;;;17.87;61.66;97626.25;2077470;28;19925;-69
2023/12/14 00:01:02;;;;;;;;;;;;;;;17.85;61.87;97637.19;2074319;28;19975;-69
2023/12/14 00:02:03;;;;;;;;;;;;;;;17.84;61.67;97629.38;2068862;28;19929;-69
2023/12/14 00:03:05;;;;;;;;;;;;;;;17.85;61.78;97625.63;2078954;28;19929;-68
2023/12/14 00:04:06;;;;;;;;;;;;;;;17.84;61.74;97626.69;2065438;28;19925;-72
2023/12/14 00:05:07;;;;;;;;;;;;;;;17.83;61.99;97630.44;2068565;28;20427;-72
2023/12/14 00:06:08;;;;;;;;;;;;;;;17.82;61.73;97628.75;2068775;28;20300;-69
2023/12/14 00:07:10;;;;;;;;;;;;;;;17.83;61.93;97636.59;2074890;28;20012;-68
2023/12/14 00:08:11;;;;;;;;;;;;;;;17.81;61.83;97637.88;2074423;28;19925;-69
2023/12/14 00:09:11;;;;;;;;;;;;;;;17.81;62.02;97637.88;2068009;28;19988;-69
2023/12/14 00:10:13;;;;;;;;;;;;;;;17.80;61.91;97636.22;2075787;28;19925;-71
2023/12/14 00:11:15;;;;;;;;;;;;;;;17.78;61.98;97633.75;2075211;28;19925;-69
2023/12/14 00:12:17;;;;;;;;;;;;;;;17.77;62.13;97636.63;2061731;28;19936;-68
2023/12/14 00:13:17;;;;;;;;;;;;;;;17.77;61.80;97634.75;2068507;28;19932;-68
2023/12/14 00:14:19;;;;;;;;;;;;;;;17.77;61.88;97644.66;2074497;28;19959;-70
2023/12/14 00:15:19;;;;;;;;;;;;;;;17.77;62.05;97647.34;2068607;28;19929;-70
2023/12/14 00:16:21;;;;;;;;;;;;;;;17.77;61.98;97639.31;2067258;28;19929;-69
2023/12/14 00:17:22;;;;;;;;;;;;;;;17.77;62.04;97640.13;2067743;28;19961;-68
2023/12/14 00:18:23;;;;;;;;;;;;;;;17.78;61.73;97635.59;2067713;28;19929;-69
2023/12/14 00:19:24;;;;;;;;;;;;;;;17.75;62.08;97639.53;2067672;28;19922;-69
2023/12/14 00:20:25;;;;;;;;;;;;;;;17.75;61.84;97644.91;2066390;28;20021;-69
2023/12/14 00:21:26;;;;;;;;;;;;;;;17.76;61.92;97646.53;2068261;28;19921;-71
2023/12/14 00:22:28;;;;;;;;;;;;;;;17.76;61.83;97648.41;2068010;28;20412;-72
2023/12/14 00:23:28;;;;;;;;;;;;;;;17.76;61.74;97651.09;2067614;28;19921;-71
2023/12/14 00:24:29;;;;;;;;;;;;;;;17.75;61.72;97641.41;2068136;28;20016;-68
2023/12/14 00:25:30;;;;;;;;;;;;;;;17.73;61.90;97660.41;2068828;28;19936;-69
2023/12/14 00:26:32;;;;;;;;;;;;;;;17.72;62.00;97649.88;2066069;28;19940;-69
2023/12/14 00:27:34;;;;;;;;;;;;;;;17.73;62.02;97656.91;2073920;28;19960;-70
2023/12/14 00:28:34;;;;;;;;;;;;;;;17.72;61.81;97660.59;2076911;28;19925;-71
2023/12/14 00:29:36;;;;;;;;;;;;;;;17.72;61.81;97660.59;2070234;28;19925;-68
2023/12/14 00:30:37;;;;;;;;;;;;;;;17.70;62.10;97655.47;2066920;28;20572;-68
2023/12/14 00:31:38;;;;;;;;;;;;;;;17.69;62.05;97653.84;2070814;28;19961;-69
2023/12/14 00:32:39;;;;;;;;;;;;;;;17.71;61.99;97656.28;2074720;28;19925;-69
2023/12/14 00:33:39;;;;;;;;;;;;;;;17.69;61.72;97651.16;2071338;28;20011;-69
2023/12/14 00:34:41;;;;;;;;;;;;;;;17.71;61.80;97653.59;2066392;28;19930;-68
2023/12/14 00:35:42;;;;;;;;;;;;;;;17.68;61.95;97649.50;2068982;28;19975;-69
2023/12/14 00:36:43;;;;;;;;;;;;;;;17.67;62.09;97647.88;2065179;28;19937;-68
2023/12/14 00:37:44;;;;;;;;;;;;;;;17.67;61.96;97647.88;2067819;28;19956;-72
2023/12/14 00:38:46;;;;;;;;;;;;;;;17.66;61.93;97643.53;2068512;28;19936;-69
2023/12/14 00:39:46;;;;;;;;;;;;;;;17.66;62.16;97640.84;2067674;28;19972;-72
2023/12/14 00:40:47;;;;;;;;;;;;;;;17.65;61.99;97634.69;2066865;28;19929;-69
2023/12/14 00:41:50;;;;;;;;;;;;;;;17.67;61.85;97641.69;2069036;28;19925;-69
2023/12/14 00:42:50;;;;;;;;;;;;;;;17.66;62.11;97635.50;2068798;28;19928;-68
2023/12/14 00:43:51;;;;;;;;;;;;;;;17.65;61.86;97629.31;2069745;28;19921;-69
2023/12/14 00:44:52;;;;;;;;;;;;;;;17.65;62.07;97637.34;2069137;28;19922;-69
2023/12/14 00:45:53;;;;;;;;;;;;;;;17.64;62.11;97629.56;2068281;28;19921;-68
2023/12/14 00:46:55;;;;;;;;;;;;;;;17.63;61.85;97639.47;2067917;28;20444;-67
2023/12/14 00:47:55;;;;;;;;;;;;;;;17.63;62.11;97642.16;2067185;28;19921;-67
2023/12/14 00:48:56;;;;;;;;;;;;;;;17.63;61.85;97641.28;2067080;28;19928;-68
2023/12/14 00:49:58;;;;;;;;;;;;;;;17.63;62.14;97639.47;2065450;28;19921;-68
2023/12/14 00:50:58;;;;;;;;;;;;;;;17.63;61.98;97649.34;2066574;28;19921;-69
2023/12/14 00:52:00;;;;;;;;;;;;;;;17.63;61.96;97647.50;2067603;28;19957;-68
2023/12/14 00:53:00;;;;;;;;;;;;;;;17.63;61.95;97646.66;2067113;28;20471;-68
2023/12/14 00:54:01;;;;;;;;;;;;;;;17.63;61.85;97649.34;2067216;28;19925;-68
2023/12/14 00:55:03;;;;;;;;;;;;;;;17.62;62.07;97645.84;2067181;28;19936;-69
2023/12/14 00:56:04;;;;;;;;;;;;;;;17.61;62.16;97651.44;2067717;28;19979;-69
2023/12/14 00:57:07;;;;;;;;;;;;;;;17.59;62.20;97656.19;2076094;28;19933;-68
2023/12/14 00:58:07;;;;;;;;;;;;;;;17.58;61.99;97654.56;2066042;28;19929;-68
2023/12/14 00:59:09;;;;;;;;;;;;;;;17.58;61.93;97659.94;2076119;28;19999;-68
2023/12/14 01:00:10;;;;;;;;;;;;;;;17.57;62.23;97653.72;2065913;28;19929;-68
2023/12/14 01:01:11;;;;;;;;;;;;;;;17.57;62.18;97653.72;2066626;28;19921;-72
2023/12/14 01:02:12;;;;;;;;;;;;;;;17.57;62.14;97656.41;2065967;28;19957;-69
2023/12/14 01:03:13;;;;;;;;;;;;;;;17.58;62.16;97658.06;2065176;28;19929;-70
2023/12/14 01:04:15;;;;;;;;;;;;;;;17.59;62.12;97666.94;2066433;28;19968;-68
2023/12/14 01:05:16;;;;;;;;;;;;;;;17.56;61.96;97668.19;2069398;28;19925;-68
2023/12/14 01:06:16;;;;;;;;;;;;;;;17.62;62.03;97671.84;2067532;28;19925;-68
2023/12/14 01:07:18;;;;;;;;;;;;;;;17.56;61.94;97670.88;2066699;28;19929;-71
2023/12/14 01:08:18;;;;;;;;;;;;;;;17.58;62.00;97678.72;2069792;28;20373;-72
2023/12/14 01:09:20;;;;;;;;;;;;;;;17.58;61.84;97676.84;2073328;28;19956;-68
2023/12/14 01:10:21;;;;;;;;;;;;;;;17.55;62.06;97676.44;2067668;28;20400;-68
2023/12/14 01:11:22;;;;;;;;;;;;;;;17.55;61.87;97681.81;2067001;28;19979;-69
2023/12/14 01:12:24;;;;;;;;;;;;;;;17.56;62.03;97686.97;2065772;28;20293;-69
2023/12/14 01:13:26;;;;;;;;;;;;;;;17.57;62.05;97680.53;2067180;28;20400;-69
2023/12/14 01:14:27;;;;;;;;;;;;;;;17.56;62.02;97684.28;2068631;28;19925;-68
2023/12/14 01:15:27;;;;;;;;;;;;;;;17.54;61.95;97680.97;2065124;28;20364;-71
2023/12/14 01:16:29;;;;;;;;;;;;;;;17.59;61.82;97683.00;2066465;28;19929;-71
2023/12/14 01:17:30;;;;;;;;;;;;;;;17.59;61.92;97683.00;2070562;28;19925;-71
2023/12/14 01:18:31;;;;;;;;;;;;;;;17.56;62.02;97683.47;2072139;28;19961;-69
2023/12/14 01:19:32;;;;;;;;;;;;;;;17.54;62.03;97689.03;2072140;28;19929;-69
2023/12/14 01:20:33;;;;;;;;;;;;;;;17.54;61.96;97689.03;2067038;28;20012;-70
2023/12/14 01:21:34;;;;;;;;;;;;;;;17.57;61.83;97696.63;2066462;28;19925;-68
2023/12/14 01:22:35;;;;;;;;;;;;;;;17.55;61.89;97696.06;2068967;28;19925;-67
2023/12/14 01:23:36;;;;;;;;;;;;;;;17.55;61.76;97693.38;2068174;28;19922;-67
2023/12/14 01:24:37;;;;;;;;;;;;;;;17.54;61.72;97702.44;2063960;28;20389;-68
2023/12/14 01:25:38;;;;;;;;;;;;;;;17.54;61.90;97705.13;2070794;28;19928;-68
2023/12/14 01:26:39;;;;;;;;;;;;;;;17.52;62.10;97704.50;2069218;28;19921;-68
2023/12/14 01:27:42;;;;;;;;;;;;;;;17.51;61.88;97705.56;2064863;28;19926;-68
2023/12/14 01:28:43;;;;;;;;;;;;;;;17.54;61.87;97707.78;2065993;28;19936;-70
2023/12/14 01:29:44;;;;;;;;;;;;;;;17.53;61.95;97703.47;2065391;28;20020;-67
2023/12/14 01:30:45;;;;;;;;;;;;;;;17.53;61.78;97706.16;2065468;28;20304;-72
2023/12/14 01:31:47;;;;;;;;;;;;;;;17.51;61.89;97699.38;2068749;28;20040;-68
2023/12/14 01:32:47;;;;;;;;;;;;;;;17.52;61.86;97693.78;2071752;28;19937;-68
2023/12/14 01:33:48;;;;;;;;;;;;;;;17.51;61.98;97697.50;2075017;28;20195;-68
2023/12/14 01:34:49;;;;;;;;;;;;;;;17.50;62.02;97697.75;2074587;28;20011;-69
2023/12/14 01:35:50;;;;;;;;;;;;;;;17.50;61.76;97697.75;2074401;28;19925;-69
2023/12/14 01:36:51;;;;;;;;;;;;;;;17.50;62.06;97695.88;2073086;28;20456;-70
2023/12/14 01:37:52;;;;;;;;;;;;;;;17.51;61.83;97686.78;2074992;28;19925;-69
2023/12/14 01:38:53;;;;;;;;;;;;;;;17.49;61.92;97693.41;2075136;28;21498;-71
2023/12/14 01:39:54;;;;;;;;;;;;;;;17.50;62.03;97695.88;2074804;28;19929;-69
2023/12/14 01:40:56;;;;;;;;;;;;;;;17.48;61.81;97687.22;2073845;28;19940;-68
2023/12/14 01:41:57;;;;;;;;;;;;;;;17.49;61.72;97686.19;2075301;28;20304;-69
2023/12/14 01:43:08;;;;;;;;;;;;;;;17.48;61.94;97676.50;2074855;28;19928;-67
2023/12/14 01:44:09;;;;;;;;;;;;;;;17.47;61.80;97674.88;2063261;28;19976;-68
2023/12/14 01:45:10;;;;;;;;;;;;;;;17.48;62.00;97684.53;2067404;28;19948;-69
2023/12/14 01:46:12;;;;;;;;;;;;;;;17.49;61.84;97680.00;2073916;28;20016;-69
2023/12/14 01:47:13;;;;;;;;;;;;;;;17.45;61.87;97676.13;2074696;28;19929;-71
2023/12/14 01:48:14;;;;;;;;;;;;;;;17.42;61.96;97674.72;2066633;28;20008;-69
2023/12/14 01:49:15;;;;;;;;;;;;;;;17.45;61.95;97681.50;2062688;28;20013;-71
2023/12/14 01:50:17;;;;;;;;;;;;;;;17.45;62.00;97676.13;2070212;28;20381;-72
2023/12/14 01:51:18;;;;;;;;;;;;;;;17.45;62.00;97684.16;2069752;28;20521;-68
2023/12/14 01:52:19;;;;;;;;;;;;;;;17.46;61.95;97688.47;2067220;28;19958;-67
2023/12/14 01:53:20;;;;;;;;;;;;;;;17.46;61.78;97700.03;2064740;28;19921;-69
2023/12/14 01:54:22;;;;;;;;;;;;;;;17.41;61.99;97694.50;2066375;28;19969;-68
2023/12/14 01:55:22;;;;;;;;;;;;;;;17.41;62.03;97694.50;2070176;28;19926;-68
2023/12/14 01:56:24;;;;;;;;;;;;;;;17.43;61.82;97700.47;2071261;28;19975;-69
2023/12/14 01:57:24;;;;;;;;;;;;;;;17.44;61.87;97696.75;2066869;28;19928;-68
2023/12/14 01:58:27;;;;;;;;;;;;;;;17.43;61.75;97695.09;2064492;28;19972;-70
2023/12/14 01:59:28;;;;;;;;;;;;;;;17.42;61.79;97704.19;2066324;28;19979;-68
2023/12/14 02:00:32;;;;;;;;;;;;;;;17.42;61.92;97698.84;2066389;28;20052;-71
2023/12/14 02:01:38;;;;;;;;;;;;;;;17.42;61.98;97701.50;2069835;28;19928;-68
2023/12/14 02:02:40;;;;;;;;;;;;;;;17.38;62.13;97711.00;2069232;28;19925;-68
2023/12/14 02:03:45;;;;;;;;;;;;;;;17.38;61.94;97711.84;2074505;28;19932;-69
2023/12/14 02:04:45;;;;;;;;;;;;;;;17.37;62.40;97706.69;2071191;28;20514;-68
2023/12/14 02:05:47;;;;;;;;;;;;;;;17.39;61.93;97702.75;2066700;28;19988;-68
2023/12/14 02:06:47;;;;;;;;;;;;;;;17.38;61.89;97706.50;2065632;28;19937;-69
2023/12/14 02:07:49;;;;;;;;;;;;;;;17.37;62.18;97706.69;2067257;28;19961;-68
2023/12/14 02:08:50;;;;;;;;;;;;;;;17.35;62.16;97706.91;2064431;28;20067;-71
2023/12/14 02:09:52;;;;;;;;;;;;;;;17.37;62.11;97702.16;2074396;28;19929;-68
2023/12/14 02:10:52;;;;;;;;;;;;;;;17.38;61.92;97703.81;2063206;28;19937;-69
2023/12/14 02:11:54;;;;;;;;;;;;;;;17.38;62.02;97709.19;2066134;28;19956;-68
2023/12/14 02:12:54;;;;;;;;;;;;;;;17.38;61.95;97708.34;2067023;28;20355;-66
2023/12/14 02:13:57;;;;;;;;;;;;;;;17.38;61.70;97703.81;2066393;28;19948;-65
2023/12/14 02:14:59;;;;;;;;;;;;;;;17.37;62.01;97709.38;2063923;28;19925;-66
2023/12/14 02:16:00;;;;;;;;;;;;;;;17.35;61.90;97706.91;2066244;28;19972;-66
2023/12/14 02:17:01;;;;;;;;;;;;;;;17.34;61.91;97702.59;2064695;28;19932;-66
2023/12/14 02:18:02;;;;;;;;;;;;;;;17.36;62.05;97699.72;2067216;28;19999;-66
2023/12/14 02:19:03;;;;;;;;;;;;;;;17.37;62.10;97706.69;2063230;28;19987;-65
2023/12/14 02:20:05;;;;;;;;;;;;;;;17.35;62.02;97700.72;2065663;28;19926;-73
2023/12/14 02:21:06;;;;;;;;;;;;;;;17.34;61.97;97699.09;2066277;28;20011;-71
2023/12/14 02:22:07;;;;;;;;;;;;;;;17.34;62.15;97697.22;2066803;28;20016;-71
2023/12/14 02:23:10;;;;;;;;;;;;;;;17.33;61.85;97700.97;2065280;28;20389;-69
2023/12/14 02:24:11;;;;;;;;;;;;;;;17.33;62.12;97702.84;2067244;28;19921;-66
2023/12/14 02:25:12;;;;;;;;;;;;;;;17.33;61.99;97705.50;2065786;28;19957;-66
2023/12/14 02:26:13;;;;;;;;;;;;;;;17.32;62.13;97693.94;2064101;28;20713;-66
2023/12/14 02:27:15;;;;;;;;;;;;;;;17.31;61.97;97697.69;2063944;28;19957;-66
2023/12/14 02:28:15;;;;;;;;;;;;;;;17.30;62.07;97695.19;2065297;28;19951;-66
2023/12/14 02:29:17;;;;;;;;;;;;;;;17.31;62.05;97696.84;2068711;28;20009;-67
2023/12/14 02:30:18;;;;;;;;;;;;;;;17.29;62.38;97699.75;2068994;28;20231;-65
2023/12/14 02:31:19;;;;;;;;;;;;;;;17.29;62.09;97705.09;2062436;28;20011;-66
2023/12/14 02:32:20;;;;;;;;;;;;;;;17.29;61.98;97694.38;2066282;28;19978;-65
2023/12/14 02:33:21;;;;;;;;;;;;;;;17.27;62.07;97696.44;2066629;28;19921;-64
2023/12/14 02:34:21;;;;;;;;;;;;;;;17.28;61.95;97692.75;2066274;28;19995;-68
2023/12/14 02:35:23;;;;;;;;;;;;;;;17.28;62.07;97698.09;2065987;28;20044;-68
2023/12/14 02:36:24;;;;;;;;;;;;;;;17.28;62.10;97691.94;2066298;28;20393;-69
2023/12/14 02:37:25;;;;;;;;;;;;;;;17.30;61.82;97689.84;2066533;28;19921;-68
2023/12/14 02:38:27;;;;;;;;;;;;;;;17.32;61.84;97691.25;2064861;28;20554;-68
2023/12/14 02:39:29;;;;;;;;;;;;;;;17.26;61.99;97689.47;2064357;28;19936;-69
2023/12/14 02:40:29;;;;;;;;;;;;;;;17.27;62.02;97690.28;2067486;28;19921;-66
2023/12/14 02:41:30;;;;;;;;;;;;;;;17.29;61.95;97688.22;2067537;28;20004;-66
2023/12/14 02:42:32;;;;;;;;;;;;;;;17.28;61.93;97686.56;2066778;28;20020;-65
2023/12/14 02:43:33;;;;;;;;;;;;;;;17.27;61.98;97688.41;2063267;28;19958;-66
2023/12/14 02:44:34;;;;;;;;;;;;;;;17.27;61.97;97691.09;2065908;28;20453;-64
2023/12/14 02:45:35;;;;;;;;;;;;;;;17.24;62.04;97690.72;2070191;28;19928;-66
2023/12/14 02:46:37;;;;;;;;;;;;;;;17.25;62.11;97687.00;2068856;28;19972;-66
2023/12/14 02:47:37;;;;;;;;;;;;;;;17.25;62.03;97693.19;2064895;28;20414;-64
2023/12/14 02:48:40;;;;;;;;;;;;;;;17.25;61.95;97689.69;2067636;28;19957;-66
2023/12/14 02:49:42;;;;;;;;;;;;;;;17.22;62.14;97685.59;2066257;28;20416;-68
2023/12/14 02:50:43;;;;;;;;;;;;;;;17.23;62.01;97689.91;2067858;28;20297;-68
2023/12/14 02:51:44;;;;;;;;;;;;;;;17.23;61.98;97694.44;2065910;28;20015;-69
2023/12/14 02:52:45;;;;;;;;;;;;;;;17.23;62.14;97697.13;2070467;28;19921;-69
2023/12/14 02:53:48;;;;;;;;;;;;;;;17.23;62.04;97694.44;2072223;28;19968;-68
2023/12/14 02:54:48;;;;;;;;;;;;;;;17.22;62.00;97698.16;2071083;28;19929;-65
2023/12/14 02:55:50;;;;;;;;;;;;;;;17.22;62.04;97706.19;2073543;28;20395;-65
2023/12/14 02:56:51;;;;;;;;;;;;;;;17.23;61.88;97705.97;2077736;28;19921;-65
2023/12/14 02:57:52;;;;;;;;;;;;;;;17.20;62.18;97707.22;2074106;28;19965;-66
2023/12/14 02:58:53;;;;;;;;;;;;;;;17.22;61.93;97715.06;2073303;28;19932;-66
2023/12/14 02:59:54;;;;;;;;;;;;;;;17.24;61.90;97709.47;2066476;28;20016;-71
2023/12/14 03:00:56;;;;;;;;;;;;;;;17.20;61.98;97712.59;2066842;28;19922;-69
2023/12/14 03:01:56;;;;;;;;;;;;;;;17.18;62.17;97709.28;2073148;28;19932;-69
2023/12/14 03:02:58;;;;;;;;;;;;;;;17.19;62.05;97710.16;2066322;28;20392;-71
2023/12/14 03:03:59;;;;;;;;;;;;;;;17.20;62.00;97706.41;2066189;28;19929;-68
2023/12/14 03:05:00;;;;;;;;;;;;;;;17.19;61.90;97707.47;2073537;28;19960;-68
2023/12/14 03:06:01;;;;;;;;;;;;;;;17.18;62.12;97703.13;2065047;28;19925;-68
2023/12/14 03:07:02;;;;;;;;;;;;;;;17.16;62.19;97700.69;2066159;28;19975;-70
2023/12/14 03:08:03;;;;;;;;;;;;;;;17.11;62.27;97697.00;2066293;28;19921;-69
2023/12/14 03:09:05;;;;;;;;;;;;;;;17.11;62.36;97692.47;2065073;28;19995;-71
2023/12/14 03:10:08;;;;;;;;;;;;;;;17.13;62.23;97698.44;2074373;28;19932;-72
2023/12/14 03:11:08;;;;;;;;;;;;;;;17.13;62.13;97700.28;2064118;28;19925;-68
2023/12/14 03:12:10;;;;;;;;;;;;;;;17.13;62.34;97706.47;2066034;28;19960;-70
2023/12/14 03:13:11;;;;;;;;;;;;;;;17.14;62.24;97702.75;2067706;28;20443;-69
2023/12/14 03:14:12;;;;;;;;;;;;;;;17.15;62.10;97703.56;2072689;28;19996;-68
2023/12/14 03:15:17;;;;;;;;;;;;;;;17.12;62.12;97698.63;2067043;28;19948;-70
2023/12/14 03:16:19;;;;;;;;;;;;;;;17.11;62.20;97697.00;2065404;28;19926;-68
2023/12/14 03:17:19;;;;;;;;;;;;;;;17.15;62.20;97692.84;2064871;28;19929;-69
2023/12/14 03:18:21;;;;;;;;;;;;;;;17.15;62.25;97690.16;2069993;28;19929;-68
2023/12/14 03:19:21;;;;;;;;;;;;;;;17.12;62.17;97686.06;2073366;28;19928;-67
2023/12/14 03:20:23;;;;;;;;;;;;;;;17.13;62.11;97689.56;2067535;28;20385;-66
2023/12/14 03:21:23;;;;;;;;;;;;;;;17.12;62.26;97686.06;2068733;28;19925;-67
2023/12/14 03:22:25;;;;;;;;;;;;;;;17.13;62.04;97684.19;2068341;28;20397;-68
2023/12/14 03:23:26;;;;;;;;;;;;;;;17.12;61.98;97685.25;2072250;28;19929;-66
2023/12/14 03:24:29;;;;;;;;;;;;;;;17.13;62.02;97685.03;2067734;28;19956;-65
2023/12/14 03:25:29;;;;;;;;;;;;;;;17.12;62.10;97683.38;2065999;28;19929;-66
2023/12/14 03:26:30;;;;;;;;;;;;;;;17.10;62.09;97684.63;2070265;28;19968;-67
2023/12/14 03:27:31;;;;;;;;;;;;;;;17.12;62.09;97682.56;2064758;28;19932;-66
2023/12/14 03:28:32;;;;;;;;;;;;;;;17.12;61.91;97680.69;2066206;28;20430;-70
2023/12/14 03:29:33;;;;;;;;;;;;;;;17.11;61.98;97686.28;2065724;28;19968;-68
2023/12/14 03:30:34;;;;;;;;;;;;;;;17.14;62.16;97686.66;2069786;28;20411;-66
2023/12/14 03:31:35;;;;;;;;;;;;;;;17.11;62.01;97678.25;2073024;28;19925;-66
2023/12/14 03:32:35;;;;;;;;;;;;;;;17.11;61.89;97681.75;2075328;28;19963;-66
2023/12/14 03:33:37;;;;;;;;;;;;;;;17.10;61.96;97682.75;2075042;28;20486;-67
2023/12/14 03:34:38;;;;;;;;;;;;;;;17.09;62.22;97691.84;2074253;28;19929;-66
2023/12/14 03:35:41;;;;;;;;;;;;;;;17.10;62.03;97688.13;2074930;28;19935;-66
2023/12/14 03:36:42;;;;;;;;;;;;;;;17.09;62.16;97678.44;2074722;28;19944;-65
2023/12/14 03:37:44;;;;;;;;;;;;;;;17.09;62.10;97683.81;2073644;28;20003;-66
2023/12/14 03:38:44;;;;;;;;;;;;;;;17.10;62.04;97681.94;2074186;28;20484;-70
2023/12/14 03:39:47;;;;;;;;;;;;;;;17.08;61.95;97679.50;2073467;28;20152;-67
2023/12/14 03:40:48;;;;;;;;;;;;;;;17.09;62.19;97678.44;2074445;28;20396;-69
2023/12/14 03:41:49;;;;;;;;;;;;;;;17.10;61.99;97680.09;2073347;28;19960;-68
2023/12/14 03:42:50;;;;;;;;;;;;;;;17.11;62.11;97680.94;2074028;28;19925;-69
2023/12/14 03:43:51;;;;;;;;;;;;;;;17.11;62.15;97678.25;2075038;28;19983;-69
2023/12/14 03:44:52;;;;;;;;;;;;;;;17.11;62.00;97688.97;2072681;28;19929;-66
2023/12/14 03:45:53;;;;;;;;;;;;;;;17.09;61.94;97689.16;2072660;28;19921;-66
2023/12/14 03:46:57;;;;;;;;;;;;;;;17.10;62.00;97685.44;2075933;28;21851;-66
2023/12/14 03:47:58;;;;;;;;;;;;;;;17.07;61.98;97680.53;2075371;28;20020;-66
2023/12/14 03:48:58;;;;;;;;;;;;;;;17.08;62.06;97690.22;2068647;28;20556;-66
2023/12/14 03:50:00;;;;;;;;;;;;;;;17.08;61.93;97684.88;2062443;28;19929;-69
2023/12/14 03:51:02;;;;;;;;;;;;;;;17.08;61.90;97690.22;2068236;28;19925;-66
2023/12/14 03:52:04;;;;;;;;;;;;;;;17.08;62.08;97697.44;2067020;28;19934;-66
2023/12/14 03:53:04;;;;;;;;;;;;;;;17.08;62.05;97692.91;2073757;28;19929;-64
2023/12/14 03:54:06;;;;;;;;;;;;;;;17.07;61.97;97693.91;2065071;28;19965;-72
2023/12/14 03:55:08;;;;;;;;;;;;;;;17.05;61.79;97692.50;2074104;28;20410;-68
2023/12/14 03:56:10;;;;;;;;;;;;;;;17.08;62.12;97700.94;2066941;28;19925;-71
2023/12/14 03:57:10;;;;;;;;;;;;;;;17.06;61.85;97697.66;2067836;28;19921;-69
2023/12/14 03:58:12;;;;;;;;;;;;;;;17.04;62.04;97697.03;2074507;28;20413;-69
2023/12/14 03:59:13;;;;;;;;;;;;;;;17.06;61.96;97696.81;2074915;28;19929;-70
2023/12/14 04:00:15;;;;;;;;;;;;;;;17.02;62.22;97701.81;2066979;28;19925;-66
2023/12/14 04:01:16;;;;;;;;;;;;;;;17.03;62.06;97708.78;2068185;28;19925;-64
2023/12/14 04:02:17;;;;;;;;;;;;;;;17.03;62.18;97705.31;2067611;28;19921;-65
2023/12/14 04:03:18;;;;;;;;;;;;;;;17.04;61.87;97701.56;2068182;28;20756;-65
2023/12/14 04:04:19;;;;;;;;;;;;;;;17.02;62.09;97698.28;2076553;28;19936;-66
2023/12/14 04:05:21;;;;;;;;;;;;;;;17.02;62.02;97709.00;2075658;28;19979;-66
2023/12/14 04:06:21;;;;;;;;;;;;;;;17.00;62.13;97706.56;2073146;28;19932;-65
2023/12/14 04:07:22;;;;;;;;;;;;;;;17.02;62.10;97715.19;2074248;28;19964;-66
2023/12/14 04:08:23;;;;;;;;;;;;;;;17.02;62.04;97712.53;2075602;28;19936;-67
2023/12/14 04:09:24;;;;;;;;;;;;;;;16.97;62.18;97717.69;2075488;28;19921;-65
2023/12/14 04:10:27;;;;;;;;;;;;;;;16.96;62.38;97718.72;2072937;28;20131;-66
2023/12/14 04:11:27;;;;;;;;;;;;;;;16.99;62.24;97718.28;2071237;28;20356;-66
2023/12/14 04:12:29;;;;;;;;;;;;;;;17.02;62.19;97714.34;2069344;28;20056;-66
2023/12/14 04:13:29;;;;;;;;;;;;;;;17.09;62.01;97721.31;2068199;28;20404;-65
2023/12/14 04:14:30;;;;;;;;;;;;;;;17.11;61.71;97713.91;2065623;28;20028;-66
2023/12/14 04:15:32;;;;;;;;;;;;;;;17.15;61.55;97712.41;2066097;28;20563;-66
2023/12/14 04:16:32;;;;;;;;;;;;;;;17.19;61.45;97710.97;2068363;28;20928;-66
2023/12/14 04:17:34;;;;;;;;;;;;;;;17.24;61.56;97717.50;2066705;28;20016;-67
2023/12/14 04:18:35;;;;;;;;;;;;;;;17.29;61.50;97720.38;2067072;28;19933;-66
2023/12/14 04:19:36;;;;;;;;;;;;;;;17.31;61.41;97710.25;2067459;28;19949;-66
2023/12/14 04:20:37;;;;;;;;;;;;;;;17.33;61.39;97713.56;2065139;28;20265;-66
2023/12/14 04:21:38;;;;;;;;;;;;;;;17.36;61.41;97716.59;2066827;28;19976;-72
2023/12/14 04:22:39;;;;;;;;;;;;;;;17.40;61.38;97714.31;2064984;28;20384;-73
2023/12/14 04:23:40;;;;;;;;;;;;;;;17.43;61.16;97716.53;2064348;28;19922;-68
2023/12/14 04:24:41;;;;;;;;;;;;;;;17.45;61.20;97713.66;2065899;28;21102;-64
2023/12/14 04:25:44;;;;;;;;;;;;;;;17.47;61.33;97716.91;2066756;28;19979;-69
2023/12/14 04:26:45;;;;;;;;;;;;;;;17.50;61.13;97717.31;2068157;28;19930;-70
2023/12/14 04:27:46;;;;;;;;;;;;;;;17.50;61.10;97716.50;2064836;28;20008;-66
2023/12/14 04:28:47;;;;;;;;;;;;;;;17.53;61.09;97718.75;2065476;28;19929;-65
2023/12/14 04:29:48;;;;;;;;;;;;;;;17.53;61.12;97711.53;2064977;28;20045;-67
2023/12/14 04:30:49;;;;;;;;;;;;;;;17.56;61.16;97727.16;2066245;28;19932;-70
2023/12/14 04:31:51;;;;;;;;;;;;;;;17.58;61.08;97721.59;2066719;28;20048;-68
2023/12/14 04:32:51;;;;;;;;;;;;;;;17.59;61.19;97725.91;2066495;28;19944;-65
2023/12/14 04:33:53;;;;;;;;;;;;;;;17.61;61.16;97730.03;2066372;28;20447;-66
2023/12/14 04:34:54;;;;;;;;;;;;;;;17.62;61.22;97731.66;2066425;28;20379;-66
2023/12/14 04:35:55;;;;;;;;;;;;;;;17.62;61.18;97728.97;2067348;28;19993;-68
2023/12/14 04:36:57;;;;;;;;;;;;;;;17.65;61.01;97741.94;2068037;28;19921;-64
2023/12/14 04:37:58;;;;;;;;;;;;;;;17.65;61.18;97744.63;2072328;28;19921;-65
2023/12/14 04:38:59;;;;;;;;;;;;;;;17.68;60.92;97745.22;2073323;28;19927;-66
2023/12/14 04:40:00;;;;;;;;;;;;;;;17.68;60.94;97747.91;2065622;28;19926;-67
2023/12/14 04:41:03;;;;;;;;;;;;;;;17.71;61.18;97760.88;2072968;28;20442;-67
2023/12/14 04:42:04;;;;;;;;;;;;;;;17.73;61.16;97753.44;2068010;28;19936;-66
2023/12/14 04:43:06;;;;;;;;;;;;;;;17.74;60.96;97761.25;2064885;28;20181;-66
2023/12/14 04:44:06;;;;;;;;;;;;;;;17.75;60.99;97756.75;2074859;28;20406;-65
2023/12/14 04:45:09;;;;;;;;;;;;;;;17.77;61.11;97757.31;2077545;28;19925;-66
2023/12/14 04:46:09;;;;;;;;;;;;;;;17.79;61.01;97763.31;2074037;28;19932;-70
2023/12/14 04:47:11;;;;;;;;;;;;;;;17.80;61.14;97764.94;2067657;28;20296;-68
2023/12/14 04:48:12;;;;;;;;;;;;;;;17.81;60.94;97774.66;2066202;28;20293;-69
2023/12/14 04:49:13;;;;;;;;;;;;;;;17.84;60.84;97771.53;2073391;28;20004;-68
2023/12/14 04:50:14;;;;;;;;;;;;;;;17.83;61.00;97770.72;2073591;28;19994;-69
2023/12/14 04:51:14;;;;;;;;;;;;;;;17.85;61.04;97759.75;2073090;28;19925;-67
2023/12/14 04:52:16;;;;;;;;;;;;;;;17.86;60.82;97762.22;2073316;28;19930;-72
2023/12/14 04:53:17;;;;;;;;;;;;;;;17.88;61.13;97750.44;2075495;28;19948;-71
2023/12/14 04:54:18;;;;;;;;;;;;;;;17.88;61.11;97751.25;2068078;28;20354;-67
2023/12/14 04:55:19;;;;;;;;;;;;;;;17.90;61.12;97743.00;2073012;28;19951;-68
2023/12/14 04:56:22;;;;;;;;;;;;;;;17.91;61.16;97756.19;2067201;28;19925;-68
2023/12/14 04:57:23;;;;;;;;;;;;;;;17.92;60.97;97752.47;2067822;28;19979;-66
2023/12/14 04:58:24;;;;;;;;;;;;;;;17.95;60.87;97749.34;2064177;28;19995;-66
2023/12/14 04:59:25;;;;;;;;;;;;;;;17.95;61.09;97752.03;2067120;28;19932;-64
2023/12/14 05:00:26;;;;;;;;;;;;;;;17.97;60.95;97754.47;2067970;28;19968;-69
2023/12/14 05:01:27;;;;;;;;;;;;;;;17.99;60.98;97752.41;2071739;28;19956;-73
2023/12/14 05:02:29;;;;;;;;;;;;;;;17.99;60.84;97747.03;2065203;28;19940;-71
2023/12/14 05:03:29;;;;;;;;;;;;;;;18.00;60.83;97757.56;2066365;28;20246;-66
2023/12/14 05:04:31;;;;;;;;;;;;;;;18.01;60.84;97753.84;2065158;28;20017;-66
2023/12/14 05:05:31;;;;;;;;;;;;;;;18.02;60.85;97760.81;2064247;28;20444;-66
2023/12/14 05:06:35;;;;;;;;;;;;;;;18.05;61.06;97759.56;2066882;28;19952;-66
2023/12/14 05:07:35;;;;;;;;;;;;;;;18.05;60.72;97757.72;2065054;28;19996;-68
2023/12/14 05:08:37;;;;;;;;;;;;;;;18.08;61.02;97756.47;2066819;28;19933;-65
2023/12/14 05:09:37;;;;;;;;;;;;;;;18.07;60.70;97758.31;2065719;28;19936;-66
2023/12/14 05:10:39;;;;;;;;;;;;;;;18.08;60.82;97757.28;2067591;28;20031;-66
2023/12/14 05:11:41;;;;;;;;;;;;;;;18.09;60.80;97758.91;2068741;28;20640;-67
2023/12/14 05:12:43;;;;;;;;;;;;;;;18.09;61.00;97761.59;2065955;28;19932;-66
2023/12/14 05:13:43;;;;;;;;;;;;;;;18.09;61.02;97764.28;2069824;28;19985;-68
2023/12/14 05:14:45;;;;;;;;;;;;;;;18.11;60.76;97766.75;2063912;28;20041;-65
2023/12/14 05:15:45;;;;;;;;;;;;;;;18.12;60.77;97765.72;2064357;28;19929;-66
2023/12/14 05:16:47;;;;;;;;;;;;;;;18.12;60.95;97768.38;2066734;28;19999;-64
2023/12/14 05:17:47;;;;;;;;;;;;;;;18.11;60.92;97766.75;2066846;28;20492;-67
2023/12/14 05:18:49;;;;;;;;;;;;;;;18.11;60.85;97765.91;2067399;28;19956;-64